sensor_id;sensor_type;location;lat;lon;timestamp;temperature;humidity
66598;DHT22;57424;53.128;6.406;2022-12-19T00:01:56;17.70;38.50
66598;DHT22;57424;53.128;6.406;2022-12-19T00:04:21;17.70;38.60
66598;DHT22;57424;53.128;6.406;2022-12-19T00:06:47;17.60;38.60
66598;DHT22;57424;53.128;6.406;2022-12-19T00:09:13;17.60;38.50
66598;DHT22;57424;53.128;6.406;2022-12-19T00:11:39;17.60;38.50
66598;DHT22;57424;53.128;6.406;2022-12-19T00:14:05;17.60;38.60
66598;DHT22;57424;53.128;6.406;2022-12-19T00:16:31;17.60;38.60
66598;DHT22;57424;53.128;6.406;2022-12-19T00:18:58;17.60;38.60
66598;DHT22;57424;53.128;6.406;2022-12-19T00:21:26;17.60;38.60
66598;DHT22;57424;53.128;6.406;2022-12-19T00:23:52;17.60;38.60
66598;DHT22;57424;53.128;6.406;2022-12-19T00:26:24;17.60;38.60
66598;DHT22;57424;53.128;6.406;2022-12-19T00:28:55;17.50;38.60
66598;DHT22;57424;53.128;6.406;2022-12-19T00:31:23;17.50;38.60
66598;DHT22;57424;53.128;6.406;2022-12-19T00:33:49;17.50;38.60
66598;DHT22;57424;53.128;6.406;2022-12-19T00:36:17;17.50;38.60
66598;DHT22;57424;53.128;6.406;2022-12-19T00:38:44;17.50;38.60
66598;DHT22;57424;53.128;6.406;2022-12-19T00:43:39;17.50;38.60
66598;DHT22;57424;53.128;6.406;2022-12-19T00:46:07;17.50;38.70
66598;DHT22;57424;53.128;6.406;2022-12-19T00:48:33;17.50;38.70
66598;DHT22;57424;53.128;6.406;2022-12-19T00:51:04;17.40;38.60
66598;DHT22;57424;53.128;6.406;2022-12-19T00:53:29;17.50;38.80
66598;DHT22;57424;53.128;6.406;2022-12-19T00:55:55;17.40;38.70
66598;DHT22;57424;53.128;6.406;2022-12-19T00:58:22;17.40;38.70
66598;DHT22;57424;53.128;6.406;2022-12-19T01:00:47;17.40;38.70
66598;DHT22;57424;53.128;6.406;2022-12-19T01:03:13;17.50;38.80
66598;DHT22;57424;53.128;6.406;2022-12-19T01:05:39;17.40;38.80
66598;DHT22;57424;53.128;6.406;2022-12-19T01:08:04;17.40;38.80
66598;DHT22;57424;53.128;6.406;2022-12-19T01:10:30;17.40;38.80
66598;DHT22;57424;53.128;6.406;2022-12-19T01:12:57;17.40;38.80
66598;DHT22;57424;53.128;6.406;2022-12-19T01:15:22;17.40;38.80
66598;DHT22;57424;53.128;6.406;2022-12-19T01:17:48;17.40;38.80
66598;DHT22;57424;53.128;6.406;2022-12-19T01:20:20;17.30;38.80
66598;DHT22;57424;53.128;6.406;2022-12-19T01:22:46;17.30;38.80
66598;DHT22;57424;53.128;6.406;2022-12-19T01:25:12;17.30;38.80
66598;DHT22;57424;53.128;6.406;2022-12-19T01:27:38;17.30;38.80
66598;DHT22;57424;53.128;6.406;2022-12-19T01:30:05;17.30;38.90
66598;DHT22;57424;53.128;6.406;2022-12-19T01:32:33;17.30;38.90
66598;DHT22;57424;53.128;6.406;2022-12-19T01:34:59;17.30;38.90
66598;DHT22;57424;53.128;6.406;2022-12-19T01:37:25;17.30;38.90
66598;DHT22;57424;53.128;6.406;2022-12-19T01:39:50;17.30;38.90
66598;DHT22;57424;53.128;6.406;2022-12-19T01:42:19;17.20;38.80
66598;DHT22;57424;53.128;6.406;2022-12-19T01:47:26;17.20;38.90
66598;DHT22;57424;53.128;6.406;2022-12-19T01:49:52;17.20;38.90
66598;DHT22;57424;53.128;6.406;2022-12-19T01:52:18;17.20;38.90
66598;DHT22;57424;53.128;6.406;2022-12-19T01:54:43;17.20;38.90
66598;DHT22;57424;53.128;6.406;2022-12-19T01:57:13;17.20;38.90
66598;DHT22;57424;53.128;6.406;2022-12-19T01:59:44;17.20;38.90
66598;DHT22;57424;53.128;6.406;2022-12-19T02:02:13;17.20;38.90
66598;DHT22;57424;53.128;6.406;2022-12-19T02:04:43;17.20;38.90
66598;DHT22;57424;53.128;6.406;2022-12-19T02:07:10;17.10;38.90
66598;DHT22;57424;53.128;6.406;2022-12-19T02:09:36;17.10;38.90
66598;DHT22;57424;53.128;6.406;2022-12-19T02:12:02;17.10;38.90
66598;DHT22;57424;53.128;6.406;2022-12-19T02:14:28;17.10;38.90
66598;DHT22;57424;53.128;6.406;2022-12-19T02:17:12;17.10;38.90
66598;DHT22;57424;53.128;6.406;2022-12-19T02:30:16;17.00;38.90
66598;DHT22;57424;53.128;6.406;2022-12-19T02:33:02;17.00;38.90
66598;DHT22;57424;53.128;6.406;2022-12-19T02:35:39;17.00;39.00
66598;DHT22;57424;53.128;6.406;2022-12-19T02:40:41;17.00;39.00
66598;DHT22;57424;53.128;6.406;2022-12-19T02:43:10;17.00;39.00
66598;DHT22;57424;53.128;6.406;2022-12-19T02:45:38;17.00;39.10
66598;DHT22;57424;53.128;6.406;2022-12-19T02:48:05;17.00;39.10
66598;DHT22;57424;53.128;6.406;2022-12-19T02:50:40;17.00;39.10
66598;DHT22;57424;53.128;6.406;2022-12-19T02:53:07;17.00;39.10
66598;DHT22;57424;53.128;6.406;2022-12-19T02:55:45;16.90;39.10
66598;DHT22;57424;53.128;6.406;2022-12-19T02:58:20;16.90;39.10
66598;DHT22;57424;53.128;6.406;2022-12-19T03:01:33;16.90;39.10
66598;DHT22;57424;53.128;6.406;2022-12-19T03:09:45;16.90;39.10
66598;DHT22;57424;53.128;6.406;2022-12-19T03:12:20;16.80;39.10
66598;DHT22;57424;53.128;6.406;2022-12-19T03:14:48;16.90;39.10
66598;DHT22;57424;53.128;6.406;2022-12-19T03:17:14;16.80;39.10
66598;DHT22;57424;53.128;6.406;2022-12-19T03:19:40;16.80;39.10
66598;DHT22;57424;53.128;6.406;2022-12-19T03:22:06;16.80;39.10
66598;DHT22;57424;53.128;6.406;2022-12-19T03:24:32;16.80;39.20
66598;DHT22;57424;53.128;6.406;2022-12-19T03:27:02;16.80;39.10
66598;DHT22;57424;53.128;6.406;2022-12-19T03:29:45;16.80;39.60
66598;DHT22;57424;53.128;6.406;2022-12-19T03:32:15;16.80;39.20
66598;DHT22;57424;53.128;6.406;2022-12-19T03:34:43;16.80;39.20
66598;DHT22;57424;53.128;6.406;2022-12-19T03:37:15;16.80;39.20
66598;DHT22;57424;53.128;6.406;2022-12-19T03:39:45;16.80;39.20
66598;DHT22;57424;53.128;6.406;2022-12-19T03:42:13;16.80;39.20
66598;DHT22;57424;53.128;6.406;2022-12-19T03:44:59;16.70;39.90
66598;DHT22;57424;53.128;6.406;2022-12-19T03:47:43;16.70;39.20
66598;DHT22;57424;53.128;6.406;2022-12-19T03:50:11;16.80;39.30
66598;DHT22;57424;53.128;6.406;2022-12-19T03:52:44;16.70;39.20
66598;DHT22;57424;53.128;6.406;2022-12-19T03:57:56;16.70;39.20
66598;DHT22;57424;53.128;6.406;2022-12-19T04:00:24;16.70;39.20
66598;DHT22;57424;53.128;6.406;2022-12-19T04:02:52;16.70;39.30
66598;DHT22;57424;53.128;6.406;2022-12-19T04:05:21;16.70;39.30
66598;DHT22;57424;53.128;6.406;2022-12-19T04:07:48;16.70;40.00
66598;DHT22;57424;53.128;6.406;2022-12-19T04:10:17;16.60;39.20
66598;DHT22;57424;53.128;6.406;2022-12-19T04:13:06;16.60;39.20
66598;DHT22;57424;53.128;6.406;2022-12-19T04:15:59;16.60;39.30
66598;DHT22;57424;53.128;6.406;2022-12-19T04:18:28;16.60;39.30
66598;DHT22;57424;53.128;6.406;2022-12-19T04:21:01;16.60;39.30
66598;DHT22;57424;53.128;6.406;2022-12-19T04:23:32;16.60;39.30
66598;DHT22;57424;53.128;6.406;2022-12-19T04:26:01;16.60;39.30
66598;DHT22;57424;53.128;6.406;2022-12-19T04:28:35;16.60;39.30
66598;DHT22;57424;53.128;6.406;2022-12-19T04:31:03;16.60;39.40
66598;DHT22;57424;53.128;6.406;2022-12-19T04:33:29;16.60;39.40
66598;DHT22;57424;53.128;6.406;2022-12-19T04:35:55;16.60;39.40
66598;DHT22;57424;53.128;6.406;2022-12-19T04:38:20;16.50;39.40
66598;DHT22;57424;53.128;6.406;2022-12-19T04:40:46;16.60;39.40
66598;DHT22;57424;53.128;6.406;2022-12-19T04:43:12;16.50;39.40
66598;DHT22;57424;53.128;6.406;2022-12-19T04:45:39;16.50;39.40
66598;DHT22;57424;53.128;6.406;2022-12-19T04:48:06;16.60;39.40
66598;DHT22;57424;53.128;6.406;2022-12-19T04:50:32;16.50;39.40
66598;DHT22;57424;53.128;6.406;2022-12-19T04:52:58;16.50;39.50
66598;DHT22;57424;53.128;6.406;2022-12-19T04:55:24;16.50;39.50
66598;DHT22;57424;53.128;6.406;2022-12-19T04:57:49;16.50;39.40
66598;DHT22;57424;53.128;6.406;2022-12-19T05:00:15;16.50;39.50
66598;DHT22;57424;53.128;6.406;2022-12-19T05:02:41;16.50;39.50
66598;DHT22;57424;53.128;6.406;2022-12-19T05:05:07;16.50;39.50
66598;DHT22;57424;53.128;6.406;2022-12-19T05:07:32;16.50;39.50
66598;DHT22;57424;53.128;6.406;2022-12-19T05:09:58;16.50;39.50
66598;DHT22;57424;53.128;6.406;2022-12-19T05:12:23;16.40;39.50
66598;DHT22;57424;53.128;6.406;2022-12-19T05:14:49;16.50;39.50
66598;DHT22;57424;53.128;6.406;2022-12-19T05:17:15;16.40;39.50
66598;DHT22;57424;53.128;6.406;2022-12-19T05:19:40;16.50;39.70
66598;DHT22;57424;53.128;6.406;2022-12-19T05:22:06;16.50;39.70
66598;DHT22;57424;53.128;6.406;2022-12-19T05:24:31;16.50;39.80
66598;DHT22;57424;53.128;6.406;2022-12-19T05:26:57;16.50;39.70
66598;DHT22;57424;53.128;6.406;2022-12-19T05:29:23;16.50;39.70
66598;DHT22;57424;53.128;6.406;2022-12-19T05:31:48;16.50;40.00
66598;DHT22;57424;53.128;6.406;2022-12-19T05:34:14;16.50;40.20
66598;DHT22;57424;53.128;6.406;2022-12-19T05:36:39;16.50;40.30
66598;DHT22;57424;53.128;6.406;2022-12-19T05:39:05;16.50;40.50
66598;DHT22;57424;53.128;6.406;2022-12-19T05:41:31;16.60;40.60
66598;DHT22;57424;53.128;6.406;2022-12-19T05:43:56;16.60;40.70
66598;DHT22;57424;53.128;6.406;2022-12-19T05:46:22;16.60;40.60
66598;DHT22;57424;53.128;6.406;2022-12-19T05:48:48;16.60;40.60
66598;DHT22;57424;53.128;6.406;2022-12-19T05:51:14;16.60;40.50
66598;DHT22;57424;53.128;6.406;2022-12-19T05:53:40;16.60;40.50
66598;DHT22;57424;53.128;6.406;2022-12-19T05:56:08;16.70;40.60
66598;DHT22;57424;53.128;6.406;2022-12-19T05:58:34;16.70;40.60
66598;DHT22;57424;53.128;6.406;2022-12-19T06:01:07;16.70;40.70
66598;DHT22;57424;53.128;6.406;2022-12-19T06:03:34;16.70;40.70
66598;DHT22;57424;53.128;6.406;2022-12-19T06:06:03;16.70;40.80
66598;DHT22;57424;53.128;6.406;2022-12-19T06:08:29;16.70;40.90
66598;DHT22;57424;53.128;6.406;2022-12-19T06:10:58;16.80;41.00
66598;DHT22;57424;53.128;6.406;2022-12-19T06:13:24;17.00;41.00
66598;DHT22;57424;53.128;6.406;2022-12-19T06:15:56;17.10;40.80
66598;DHT22;57424;53.128;6.406;2022-12-19T06:18:21;17.30;40.60
66598;DHT22;57424;53.128;6.406;2022-12-19T06:20:55;17.50;40.40
66598;DHT22;57424;53.128;6.406;2022-12-19T06:23:21;17.70;40.10
66598;DHT22;57424;53.128;6.406;2022-12-19T06:25:47;17.90;39.90
66598;DHT22;57424;53.128;6.406;2022-12-19T06:28:14;18.10;39.60
66598;DHT22;57424;53.128;6.406;2022-12-19T06:30:39;18.20;39.40
66598;DHT22;57424;53.128;6.406;2022-12-19T06:33:05;18.30;39.20
66598;DHT22;57424;53.128;6.406;2022-12-19T06:35:30;18.40;39.10
66598;DHT22;57424;53.128;6.406;2022-12-19T06:37:56;18.50;39.00
66598;DHT22;57424;53.128;6.406;2022-12-19T06:40:21;18.60;39.00
66598;DHT22;57424;53.128;6.406;2022-12-19T06:43:06;18.60;38.90
66598;DHT22;57424;53.128;6.406;2022-12-19T06:45:31;18.70;38.80
66598;DHT22;57424;53.128;6.406;2022-12-19T06:47:58;18.80;38.80
66598;DHT22;57424;53.128;6.406;2022-12-19T06:50:24;18.80;38.70
66598;DHT22;57424;53.128;6.406;2022-12-19T06:52:49;18.90;38.60
66598;DHT22;57424;53.128;6.406;2022-12-19T06:55:15;19.00;38.50
66598;DHT22;57424;53.128;6.406;2022-12-19T06:57:41;19.00;38.40
66598;DHT22;57424;53.128;6.406;2022-12-19T07:00:12;19.10;38.40
66598;DHT22;57424;53.128;6.406;2022-12-19T07:02:39;19.20;38.30
66598;DHT22;57424;53.128;6.406;2022-12-19T07:05:08;19.20;38.20
66598;DHT22;57424;53.128;6.406;2022-12-19T07:07:35;19.30;38.30
66598;DHT22;57424;53.128;6.406;2022-12-19T07:10:01;19.20;38.30
66598;DHT22;57424;53.128;6.406;2022-12-19T07:12:27;19.30;38.30
66598;DHT22;57424;53.128;6.406;2022-12-19T07:14:53;19.30;38.30
66598;DHT22;57424;53.128;6.406;2022-12-19T07:17:19;19.40;38.20
66598;DHT22;57424;53.128;6.406;2022-12-19T07:19:45;19.50;38.20
66598;DHT22;57424;53.128;6.406;2022-12-19T07:22:10;19.50;38.10
66598;DHT22;57424;53.128;6.406;2022-12-19T07:24:36;19.60;38.10
66598;DHT22;57424;53.128;6.406;2022-12-19T07:27:02;19.60;37.90
66598;DHT22;57424;53.128;6.406;2022-12-19T07:29:28;19.70;37.80
66598;DHT22;57424;53.128;6.406;2022-12-19T07:31:53;19.80;37.70
66598;DHT22;57424;53.128;6.406;2022-12-19T07:34:19;19.80;37.70
66598;DHT22;57424;53.128;6.406;2022-12-19T07:36:45;19.90;37.70
66598;DHT22;57424;53.128;6.406;2022-12-19T07:39:10;19.80;37.70
66598;DHT22;57424;53.128;6.406;2022-12-19T07:41:36;19.70;37.80
66598;DHT22;57424;53.128;6.406;2022-12-19T07:44:03;19.50;37.90
66598;DHT22;57424;53.128;6.406;2022-12-19T07:46:29;19.40;38.20
66598;DHT22;57424;53.128;6.406;2022-12-19T07:48:55;19.30;38.50
66598;DHT22;57424;53.128;6.406;2022-12-19T07:51:24;19.20;38.70
66598;DHT22;57424;53.128;6.406;2022-12-19T07:53:49;19.00;38.80
66598;DHT22;57424;53.128;6.406;2022-12-19T07:56:15;18.90;38.90
66598;DHT22;57424;53.128;6.406;2022-12-19T07:58:41;18.90;39.10
66598;DHT22;57424;53.128;6.406;2022-12-19T08:01:09;18.80;39.20
66598;DHT22;57424;53.128;6.406;2022-12-19T08:03:36;18.70;39.30
66598;DHT22;57424;53.128;6.406;2022-12-19T08:06:04;18.60;39.40
66598;DHT22;57424;53.128;6.406;2022-12-19T08:08:30;18.60;39.50
66598;DHT22;57424;53.128;6.406;2022-12-19T08:13:32;18.50;39.70
66598;DHT22;57424;53.128;6.406;2022-12-19T08:16:01;18.50;39.80
66598;DHT22;57424;53.128;6.406;2022-12-19T08:18:27;18.50;39.80
66598;DHT22;57424;53.128;6.406;2022-12-19T08:20:52;18.40;39.90
66598;DHT22;57424;53.128;6.406;2022-12-19T08:23:18;18.40;39.90
66598;DHT22;57424;53.128;6.406;2022-12-19T08:25:46;18.40;40.00
66598;DHT22;57424;53.128;6.406;2022-12-19T08:28:12;18.40;40.00
66598;DHT22;57424;53.128;6.406;2022-12-19T08:30:40;18.40;40.20
66598;DHT22;57424;53.128;6.406;2022-12-19T08:33:07;18.40;40.20
66598;DHT22;57424;53.128;6.406;2022-12-19T08:35:34;18.30;40.20
66598;DHT22;57424;53.128;6.406;2022-12-19T08:38:00;18.30;40.20
66598;DHT22;57424;53.128;6.406;2022-12-19T08:40:25;18.40;40.30
66598;DHT22;57424;53.128;6.406;2022-12-19T08:42:51;18.30;40.20
66598;DHT22;57424;53.128;6.406;2022-12-19T08:45:17;18.40;40.30
66598;DHT22;57424;53.128;6.406;2022-12-19T08:47:43;18.30;40.40
66598;DHT22;57424;53.128;6.406;2022-12-19T08:50:09;18.30;40.30
66598;DHT22;57424;53.128;6.406;2022-12-19T08:52:35;18.30;40.40
66598;DHT22;57424;53.128;6.406;2022-12-19T08:55:01;18.40;40.80
66598;DHT22;57424;53.128;6.406;2022-12-19T08:57:26;18.40;40.80
66598;DHT22;57424;53.128;6.406;2022-12-19T08:59:52;18.30;41.10
66598;DHT22;57424;53.128;6.406;2022-12-19T09:02:18;18.40;41.40
66598;DHT22;57424;53.128;6.406;2022-12-19T09:04:43;18.40;41.40
66598;DHT22;57424;53.128;6.406;2022-12-19T09:07:09;18.50;41.40
66598;DHT22;57424;53.128;6.406;2022-12-19T09:09:34;18.60;41.50
66598;DHT22;57424;53.128;6.406;2022-12-19T09:12:00;18.70;41.40
66598;DHT22;57424;53.128;6.406;2022-12-19T09:14:25;18.90;41.10
66598;DHT22;57424;53.128;6.406;2022-12-19T09:16:51;19.20;40.50
66598;DHT22;57424;53.128;6.406;2022-12-19T09:19:16;19.60;40.00
66598;DHT22;57424;53.128;6.406;2022-12-19T09:21:42;19.90;39.50
66598;DHT22;57424;53.128;6.406;2022-12-19T09:24:08;20.10;39.00
66598;DHT22;57424;53.128;6.406;2022-12-19T09:26:35;20.30;38.60
66598;DHT22;57424;53.128;6.406;2022-12-19T09:29:03;20.40;38.20
66598;DHT22;57424;53.128;6.406;2022-12-19T09:36:22;20.60;38.00
66598;DHT22;57424;53.128;6.406;2022-12-19T09:38:49;20.90;38.30
66598;DHT22;57424;53.128;6.406;2022-12-19T09:48:52;21.00;37.60
66598;DHT22;57424;53.128;6.406;2022-12-19T09:54:11;21.10;37.70
66598;DHT22;57424;53.128;6.406;2022-12-19T09:56:43;21.10;37.70
66598;DHT22;57424;53.128;6.406;2022-12-19T10:01:57;21.10;37.80
66598;DHT22;57424;53.128;6.406;2022-12-19T10:04:25;21.10;37.70
66598;DHT22;57424;53.128;6.406;2022-12-19T10:06:51;21.10;37.70
66598;DHT22;57424;53.128;6.406;2022-12-19T10:09:19;21.20;37.70
66598;DHT22;57424;53.128;6.406;2022-12-19T10:15:04;21.20;37.70
66598;DHT22;57424;53.128;6.406;2022-12-19T10:17:51;21.20;37.70
66598;DHT22;57424;53.128;6.406;2022-12-19T10:20:28;21.20;37.70
66598;DHT22;57424;53.128;6.406;2022-12-19T10:26:09;21.20;37.70
66598;DHT22;57424;53.128;6.406;2022-12-19T10:28:53;21.20;37.70
66598;DHT22;57424;53.128;6.406;2022-12-19T10:31:23;21.20;37.70
66598;DHT22;57424;53.128;6.406;2022-12-19T10:36:23;21.30;37.90
66598;DHT22;57424;53.128;6.406;2022-12-19T10:38:57;21.30;37.80
66598;DHT22;57424;53.128;6.406;2022-12-19T10:41:29;21.30;37.70
66598;DHT22;57424;53.128;6.406;2022-12-19T10:44:04;21.30;37.60
66598;DHT22;57424;53.128;6.406;2022-12-19T10:47:00;21.40;37.70
66598;DHT22;57424;53.128;6.406;2022-12-19T10:49:27;21.40;37.70
66598;DHT22;57424;53.128;6.406;2022-12-19T10:52:04;21.40;37.70
66598;DHT22;57424;53.128;6.406;2022-12-19T11:00:14;21.40;37.50
66598;DHT22;57424;53.128;6.406;2022-12-19T11:02:45;21.40;37.60
66598;DHT22;57424;53.128;6.406;2022-12-19T11:05:21;21.40;37.60
66598;DHT22;57424;53.128;6.406;2022-12-19T11:10:38;21.30;37.70
66598;DHT22;57424;53.128;6.406;2022-12-19T11:16:02;21.30;37.80
66598;DHT22;57424;53.128;6.406;2022-12-19T11:18:43;21.20;37.80
66598;DHT22;57424;53.128;6.406;2022-12-19T11:21:16;21.20;37.90
66598;DHT22;57424;53.128;6.406;2022-12-19T11:26:32;21.20;38.00
66598;DHT22;57424;53.128;6.406;2022-12-19T11:29:04;21.20;38.00
66598;DHT22;57424;53.128;6.406;2022-12-19T11:31:40;21.20;38.00
66598;DHT22;57424;53.128;6.406;2022-12-19T11:34:17;21.20;38.00
66598;DHT22;57424;53.128;6.406;2022-12-19T11:39:44;21.10;38.10
66598;DHT22;57424;53.128;6.406;2022-12-19T11:44:54;20.90;38.30
66598;DHT22;57424;53.128;6.406;2022-12-19T11:47:36;20.90;38.40
66598;DHT22;57424;53.128;6.406;2022-12-19T11:50:31;20.80;38.40
66598;DHT22;57424;53.128;6.406;2022-12-19T11:53:17;20.80;38.60
66598;DHT22;57424;53.128;6.406;2022-12-19T11:55:50;20.80;38.70
66598;DHT22;57424;53.128;6.406;2022-12-19T11:58:16;20.70;38.70
66598;DHT22;57424;53.128;6.406;2022-12-19T12:06:32;20.70;39.20
66598;DHT22;57424;53.128;6.406;2022-12-19T12:12:18;20.60;39.20
66598;DHT22;57424;53.128;6.406;2022-12-19T12:25:27;20.60;39.60
66598;DHT22;57424;53.128;6.406;2022-12-19T12:30:48;20.50;39.70
66598;DHT22;57424;53.128;6.406;2022-12-19T12:33:37;20.50;39.70
66598;DHT22;57424;53.128;6.406;2022-12-19T12:36:19;20.50;39.80
66598;DHT22;57424;53.128;6.406;2022-12-19T12:44:34;20.30;40.20
66598;DHT22;57424;53.128;6.406;2022-12-19T12:49:45;20.20;40.60
66598;DHT22;57424;53.128;6.406;2022-12-19T12:52:18;20.10;40.70
66598;DHT22;57424;53.128;6.406;2022-12-19T12:54:46;20.10;40.90
66598;DHT22;57424;53.128;6.406;2022-12-19T12:57:34;20.10;41.10
66598;DHT22;57424;53.128;6.406;2022-12-19T13:00:14;20.00;41.10
66598;DHT22;57424;53.128;6.406;2022-12-19T13:02:43;20.00;41.50
66598;DHT22;57424;53.128;6.406;2022-12-19T13:06:05;20.00;41.60
66598;DHT22;57424;53.128;6.406;2022-12-19T13:08:46;20.00;41.80
66598;DHT22;57424;53.128;6.406;2022-12-19T13:11:35;20.00;41.90
66598;DHT22;57424;53.128;6.406;2022-12-19T13:16:59;20.00;41.80
66598;DHT22;57424;53.128;6.406;2022-12-19T13:19:36;20.00;42.00
66598;DHT22;57424;53.128;6.406;2022-12-19T13:24:45;19.90;42.30
66598;DHT22;57424;53.128;6.406;2022-12-19T13:30:00;19.90;42.50
66598;DHT22;57424;53.128;6.406;2022-12-19T13:37:38;19.90;42.70
66598;DHT22;57424;53.128;6.406;2022-12-19T13:45:40;19.90;43.10
66598;DHT22;57424;53.128;6.406;2022-12-19T13:48:15;20.00;43.20
66598;DHT22;57424;53.128;6.406;2022-12-19T13:50:45;20.00;43.40
66598;DHT22;57424;53.128;6.406;2022-12-19T13:53:20;19.90;43.40
66598;DHT22;57424;53.128;6.406;2022-12-19T13:55:47;19.90;43.50
66598;DHT22;57424;53.128;6.406;2022-12-19T13:58:30;20.00;43.60
66598;DHT22;57424;53.128;6.406;2022-12-19T14:01:02;20.00;43.60
66598;DHT22;57424;53.128;6.406;2022-12-19T14:03:37;20.00;43.70
66598;DHT22;57424;53.128;6.406;2022-12-19T14:09:33;20.00;43.70
66598;DHT22;57424;53.128;6.406;2022-12-19T14:12:02;20.00;43.70
66598;DHT22;57424;53.128;6.406;2022-12-19T14:14:29;20.00;43.70
66598;DHT22;57424;53.128;6.406;2022-12-19T14:17:19;20.00;43.80
66598;DHT22;57424;53.128;6.406;2022-12-19T14:19:47;20.00;44.50
66598;DHT22;57424;53.128;6.406;2022-12-19T14:27:20;20.00;44.30
66598;DHT22;57424;53.128;6.406;2022-12-19T14:29:50;20.10;44.40
66598;DHT22;57424;53.128;6.406;2022-12-19T14:32:18;20.10;44.40
66598;DHT22;57424;53.128;6.406;2022-12-19T14:34:45;20.10;44.40
66598;DHT22;57424;53.128;6.406;2022-12-19T14:37:24;20.10;44.40
66598;DHT22;57424;53.128;6.406;2022-12-19T14:39:57;20.10;44.20
66598;DHT22;57424;53.128;6.406;2022-12-19T14:42:24;20.10;44.20
66598;DHT22;57424;53.128;6.406;2022-12-19T14:45:31;20.10;44.30
66598;DHT22;57424;53.128;6.406;2022-12-19T14:47:57;20.20;44.40
66598;DHT22;57424;53.128;6.406;2022-12-19T14:55:41;20.20;44.50
66598;DHT22;57424;53.128;6.406;2022-12-19T14:58:08;20.20;44.40
66598;DHT22;57424;53.128;6.406;2022-12-19T15:00:48;20.20;44.30
66598;DHT22;57424;53.128;6.406;2022-12-19T15:03:22;20.20;44.20
66598;DHT22;57424;53.128;6.406;2022-12-19T15:05:49;20.20;44.10
66598;DHT22;57424;53.128;6.406;2022-12-19T15:08:28;20.20;44.00
66598;DHT22;57424;53.128;6.406;2022-12-19T15:10:59;20.10;43.90
66598;DHT22;57424;53.128;6.406;2022-12-19T15:13:54;20.10;43.90
66598;DHT22;57424;53.128;6.406;2022-12-19T15:16:28;20.10;43.90
66598;DHT22;57424;53.128;6.406;2022-12-19T15:18:56;20.10;44.10
66598;DHT22;57424;53.128;6.406;2022-12-19T15:21:22;20.10;44.30
66598;DHT22;57424;53.128;6.406;2022-12-19T15:23:48;20.10;44.40
66598;DHT22;57424;53.128;6.406;2022-12-19T15:26:16;20.10;44.50
66598;DHT22;57424;53.128;6.406;2022-12-19T15:28:49;20.10;44.50
66598;DHT22;57424;53.128;6.406;2022-12-19T15:33:57;20.10;44.60
66598;DHT22;57424;53.128;6.406;2022-12-19T15:36:23;20.10;44.60
66598;DHT22;57424;53.128;6.406;2022-12-19T15:38:49;20.10;44.60
66598;DHT22;57424;53.128;6.406;2022-12-19T15:41:22;20.10;44.60
66598;DHT22;57424;53.128;6.406;2022-12-19T15:43:48;20.10;45.40
66598;DHT22;57424;53.128;6.406;2022-12-19T15:46:15;20.10;45.40
66598;DHT22;57424;53.128;6.406;2022-12-19T15:48:45;20.10;44.70
66598;DHT22;57424;53.128;6.406;2022-12-19T15:51:13;20.20;44.80
66598;DHT22;57424;53.128;6.406;2022-12-19T15:53:39;20.10;44.80
66598;DHT22;57424;53.128;6.406;2022-12-19T15:56:29;20.10;44.70
66598;DHT22;57424;53.128;6.406;2022-12-19T15:58:59;20.20;45.00
66598;DHT22;57424;53.128;6.406;2022-12-19T16:01:27;20.10;44.90
66598;DHT22;57424;53.128;6.406;2022-12-19T16:03:54;20.20;44.90
66598;DHT22;57424;53.128;6.406;2022-12-19T16:06:20;20.20;44.90
66598;DHT22;57424;53.128;6.406;2022-12-19T16:08:45;20.20;44.80
66598;DHT22;57424;53.128;6.406;2022-12-19T16:11:22;20.20;44.80
66598;DHT22;57424;53.128;6.406;2022-12-19T16:13:53;20.20;45.10
66598;DHT22;57424;53.128;6.406;2022-12-19T16:16:20;20.20;45.00
66598;DHT22;57424;53.128;6.406;2022-12-19T16:18:45;20.10;44.90
66598;DHT22;57424;53.128;6.406;2022-12-19T16:21:23;20.20;45.00
66598;DHT22;57424;53.128;6.406;2022-12-19T16:23:49;20.20;44.90
66598;DHT22;57424;53.128;6.406;2022-12-19T16:26:32;20.10;44.80
66598;DHT22;57424;53.128;6.406;2022-12-19T16:28:59;20.10;44.80
66598;DHT22;57424;53.128;6.406;2022-12-19T16:31:25;20.10;44.90
66598;DHT22;57424;53.128;6.406;2022-12-19T16:33:51;20.10;44.80
66598;DHT22;57424;53.128;6.406;2022-12-19T16:36:17;20.10;44.70
66598;DHT22;57424;53.128;6.406;2022-12-19T16:38:43;20.10;44.60
66598;DHT22;57424;53.128;6.406;2022-12-19T16:41:20;20.10;44.70
66598;DHT22;57424;53.128;6.406;2022-12-19T16:43:47;20.00;44.40
66598;DHT22;57424;53.128;6.406;2022-12-19T16:46:22;20.00;44.40
66598;DHT22;57424;53.128;6.406;2022-12-19T16:48:48;20.00;44.40
66598;DHT22;57424;53.128;6.406;2022-12-19T16:51:19;20.00;44.50
66598;DHT22;57424;53.128;6.406;2022-12-19T16:53:46;19.90;44.50
66598;DHT22;57424;53.128;6.406;2022-12-19T16:59:00;20.00;44.40
66598;DHT22;57424;53.128;6.406;2022-12-19T17:01:26;20.10;44.40
66598;DHT22;57424;53.128;6.406;2022-12-19T17:03:52;20.10;44.30
66598;DHT22;57424;53.128;6.406;2022-12-19T17:06:19;20.20;44.20
66598;DHT22;57424;53.128;6.406;2022-12-19T17:08:46;20.50;43.80
66598;DHT22;57424;53.128;6.406;2022-12-19T17:13:39;21.00;42.80
66598;DHT22;57424;53.128;6.406;2022-12-19T17:16:05;21.10;42.40
66598;DHT22;57424;53.128;6.406;2022-12-19T17:18:34;21.30;42.10
66598;DHT22;57424;53.128;6.406;2022-12-19T17:21:00;21.50;41.90
66598;DHT22;57424;53.128;6.406;2022-12-19T17:23:28;21.60;41.70
66598;DHT22;57424;53.128;6.406;2022-12-19T17:25:55;21.70;41.50
66598;DHT22;57424;53.128;6.406;2022-12-19T17:28:20;21.80;41.40
66598;DHT22;57424;53.128;6.406;2022-12-19T17:30:52;21.80;41.40
66598;DHT22;57424;53.128;6.406;2022-12-19T17:33:19;21.80;41.30
66598;DHT22;57424;53.128;6.406;2022-12-19T17:35:46;21.80;41.30
66598;DHT22;57424;53.128;6.406;2022-12-19T17:38:14;21.80;41.40
66598;DHT22;57424;53.128;6.406;2022-12-19T17:40:40;21.80;41.20
66598;DHT22;57424;53.128;6.406;2022-12-19T17:43:06;21.90;41.20
66598;DHT22;57424;53.128;6.406;2022-12-19T17:45:33;21.90;41.20
66598;DHT22;57424;53.128;6.406;2022-12-19T17:48:04;21.90;41.20
66598;DHT22;57424;53.128;6.406;2022-12-19T17:50:37;21.90;41.20
66598;DHT22;57424;53.128;6.406;2022-12-19T17:53:04;21.90;41.20
66598;DHT22;57424;53.128;6.406;2022-12-19T17:55:30;21.90;41.20
66598;DHT22;57424;53.128;6.406;2022-12-19T17:57:56;21.90;41.00
66598;DHT22;57424;53.128;6.406;2022-12-19T18:00:25;21.90;41.00
66598;DHT22;57424;53.128;6.406;2022-12-19T18:02:55;21.90;40.90
66598;DHT22;57424;53.128;6.406;2022-12-19T18:05:27;21.90;40.80
66598;DHT22;57424;53.128;6.406;2022-12-19T18:07:54;21.90;40.80
66598;DHT22;57424;53.128;6.406;2022-12-19T18:10:25;21.90;40.80
66598;DHT22;57424;53.128;6.406;2022-12-19T18:12:52;21.90;40.70